SUSQUEDA - St. MARTÍ SACALM (La Selva)





Hora UTC 16:45
Temperatura 9.5 ºC
Humitat 96.8 %
Pressió 1012.9 hPa
Pluja 0.0 mm
Velocitat vent 6.3 km/h
Direcció vent ESE
Radiació solar 10.8 W/m²

Dades diàries 2024-04-16



Hora UTC (hivern +1h; estiu +2h)
Temperatura (ºC) Humitat (%) Pressió (hPa) Velocitat vent (km/h) Precipitació (mm) Radiació solar (W/m²)
Hora UTC Aire Humitat Pressió Vel. Dir. Vel. Max Dir. Intent. màx 5 min. Rad. Sol.
00:05 10.9 77.4 1017.5 2.2 S 2.2 S 0.0 0.1
00:10 10.8 78.4 1017.5 3.0 SSE 6.7 SE 0.0 0.1
00:15 10.6 79.8 1017.4 4.2 SSE 7.8 ESE 0.0 0.1
00:20 10.6 81.3 1017.3 5.3 SSE 9.2 SE 0.0 0.2
00:25 10.4 82.1 1017.3 5.3 SSE 8.5 SE 0.0 0.1
00:30 10.2 82.9 1017.3 4.3 SSE 7.4 SE 0.0 0.1
00:35 10.0 83.9 1017.3 2.1 ESE 5.7 SSE 0.0 0.1
00:40 10.0 85.2 1017.2 2.3 NE 6.0 N 0.0 0.1
00:45 10.1 85.5 1017.2 2.0 N 5.3 N 0.0 0.1
00:50 10.0 86.1 1017.2 3.3 ESE 6.7 SE 0.0 0.1
00:55 10.0 86.8 1017.1 5.1 SE 8.1 SE 0.0 0.1
01:00 9.9 87.0 1017.0 4.2 ESE 6.0 ESE 0.0 0.1
01:05 9.9 87.5 1016.9 2.0 SSE 4.6 SE 0.0 0.1
01:10 9.7 87.9 1016.9 1.6 SSE 2.8 SSE 0.0 0.1
01:15 9.6 88.8 1016.9 0.5 SSW 2.1 S 0.0 0.1
01:20 9.7 89.4 1016.8 1.7 SSW 5.0 S 0.0 0.1
01:25 9.6 89.4 1016.7 3.0 SSE 5.7 SSE 0.0 0.1
01:30 9.6 89.4 1016.6 4.6 SE 6.4 SE 0.0 0.1
01:35 9.4 89.8 1016.6 4.6 SE 6.4 SSE 0.0 0.1
01:40 9.4 90.4 1016.5 5.0 SSE 7.8 S 0.0 0.1
01:45 9.3 90.5 1016.5 4.7 SSE 6.4 SSE 0.0 0.1
01:50 9.3 91.0 1016.5 6.0 SE 8.5 SE 0.0 0.1
01:55 9.4 91.1 1016.4 4.1 SSE 6.7 SE 0.0 0.1
02:00 9.3 90.7 1016.4 5.5 SSE 7.4 SSE 0.0 0.1
02:05 9.2 90.5 1016.3 6.2 S 10.3 SSE 0.0 0.1
02:10 9.2 90.9 1016.3 6.1 S 9.2 SSE 0.0 0.1
02:15 9.3 90.9 1016.2 4.6 S 7.4 SSE 0.0 0.1
02:20 9.1 90.7 1016.1 5.6 SSW 8.8 SSW 0.0 0.1
02:25 9.1 91.6 1016.0 6.6 SW 8.8 SW 0.0 0.1
02:30 9.1 91.5 1016.0 7.3 SW 9.9 SW 0.0 0.1
02:35 9.1 91.7 1015.9 8.1 SW 9.5 SW 0.0 0.1
02:40 9.2 91.4 1015.9 8.7 SW 10.6 WSW 0.0 0.1
02:45 9.3 89.2 1015.8 10.9 SW 13.8 SW 0.0 0.1
02:50 8.9 89.8 1015.7 10.4 SW 13.4 SW 0.0 0.1
02:55 9.0 90.5 1015.8 10.0 SW 12.7 SW 0.0 0.1
03:00 8.9 90.5 1015.9 8.0 SW 10.6 SW 0.0 0.1
03:05 8.9 91.0 1015.9 4.7 SW 8.1 SW 0.0 0.1
03:10 8.8 90.9 1015.9 3.6 SSW 6.0 SSW 0.0 0.1
03:15 8.8 91.0 1015.9 5.5 SSW 8.1 SSW 0.0 0.1
03:20 8.9 90.9 1015.9 6.3 SSW 8.1 SSW 0.0 0.1
03:25 8.8 90.9 1015.8 7.1 SW 8.1 SW 0.0 0.1
03:30 8.7 90.9 1015.7 7.6 SSW 10.3 SW 0.0 0.1
03:35 8.7 91.6 1015.6 9.7 SW 11.7 SSW 0.0 0.1
03:40 8.7 91.8 1015.5 10.9 SSW 13.8 SSW 0.0 0.1
03:45 8.7 91.9 1015.3 12.7 SW 15.5 SW 0.0 0.1
03:50 8.7 92.4 1015.2 12.4 SSW 16.2 SW 0.0 0.1
03:55 8.7 92.6 1015.3 9.7 SSW 12.0 SSW 0.0 0.1
04:00 8.8 92.8 1015.2 10.8 SSW 13.4 SSW 0.0 0.1
04:05 8.6 92.8 1015.1 10.4 SSW 13.1 SSW 0.0 0.1
04:10 8.6 93.4 1015.1 9.9 SSW 13.8 SW 0.0 0.1
04:15 8.7 93.5 1015.1 9.7 SSW 14.8 SSW 0.0 0.1
04:20 8.6 93.0 1015.1 10.1 SSW 14.5 SSW 0.0 0.1
04:25 8.4 92.3 1015.3 8.2 SW 10.3 SW 0.0 0.1
04:30 8.3 92.1 1015.0 11.9 SSW 15.9 SSW 0.0 0.1
04:35 8.1 91.9 1014.8 12.4 SSW 16.6 SW 0.0 0.1
04:40 8.0 92.3 1014.9 9.5 SW 12.0 SW 0.0 0.1
04:45 7.8 92.9 1015.1 10.1 SW 13.4 WSW 0.0 0.2
04:50 7.7 93.6 1015.1 9.4 SW 14.5 SW 0.0 0.2
04:55 7.8 93.2 1015.2 9.1 SW 12.4 SW 0.0 0.6
05:00 7.9 91.2 1015.3 10.1 SW 15.9 WSW 0.0 1.4
05:05 7.8 89.7 1015.3 9.4 SW 16.2 WSW 0.0 2.7
05:10 7.6 90.1 1015.4 12.1 SW 16.6 SW 0.0 5.7
05:15 7.4 90.8 1015.3 12.4 SW 15.9 SW 0.0 6.3
05:20 7.2 91.6 1015.1 13.6 SW 17.7 SW 0.0 11.2
05:25 7.1 92.6 1015.0 15.3 SW 21.2 SW 0.0 20.7
05:30 7.1 93.1 1014.9 19.6 SW 23.0 SW 0.0 37.5
05:35 7.1 92.6 1015.0 17.1 SW 22.6 WSW 0.0 48.9
05:40 7.1 91.3 1015.0 15.2 SW 20.1 SW 0.0 63.9
05:45 7.0 90.6 1015.0 15.4 SW 20.8 SW 0.0 75.3
05:50 7.0 89.9 1015.0 13.9 SW 19.8 WSW 0.0 85.4
05:55 7.0 89.6 1015.0 14.8 SW 19.1 SW 0.0 58.3
06:00 7.0 89.5 1014.9 17.5 SW 21.5 SW 0.0 70.7
06:05 7.1 89.5 1014.9 15.7 SW 21.5 SW 0.0 90.7
06:10 7.3 89.1 1015.1 15.2 SW 18.7 SW 0.0 94.3
06:15 7.2 89.1 1015.1 14.2 SW 19.1 SW 0.0 119.7
06:20 7.3 89.3 1015.1 14.1 SW 18.7 SW 0.0 164.2
06:25 7.2 88.9 1015.1 13.7 SW 18.0 SW 0.0 193.4
06:30 7.4 88.0 1015.0 15.4 SW 19.1 SW 0.0 207.7
06:35 7.5 87.3 1015.0 15.3 SW 19.4 SW 0.0 223.0
06:40 7.5 86.4 1015.0 14.6 SW 19.1 SW 0.0 242.1
06:45 7.5 86.4 1015.0 13.4 SW 15.9 SW 0.0 254.7
06:50 7.6 86.4 1014.9 14.1 SW 17.7 SW 0.0 272.1
06:55 7.9 85.7 1014.9 13.6 SW 18.7 SW 0.0 289.6
07:00 8.2 84.6 1014.9 11.8 SW 14.8 SW 0.0 308.6
07:05 8.3 84.0 1014.9 10.4 SW 15.5 WSW 0.0 329.3
07:10 8.5 83.3 1014.9 8.6 SW 11.0 SW 0.0 350.1
07:15 8.9 82.8 1014.9 8.3 SW 11.0 SW 0.0 366.4
07:20 8.8 81.5 1014.8 8.8 SW 10.6 SSW 0.0 381.5
07:25 8.8 81.4 1014.8 11.6 SW 15.5 SW 0.0 393.4
07:30 8.7 81.4 1014.8 11.5 SW 15.2 SSW 0.0 411.3
07:35 8.9 81.1 1014.7 12.7 SW 16.2 SSW 0.0 427.9
07:40 9.1 80.4 1014.8 10.8 SW 14.5 SW 0.0 446.6
07:45 9.3 79.5 1014.9 12.3 SW 15.9 SW 0.0 464.0
07:50 9.5 79.0 1015.0 10.8 SSW 15.2 SSW 0.0 478.4
07:55 9.7 78.8 1014.9 10.4 SW 14.5 SSW 0.0 495.4
08:00 9.8 77.8 1014.9 11.0 SW 13.4 SW 0.0 508.7
08:05 10.1 77.7 1014.8 8.8 SSW 12.4 SSW 0.0 521.1
08:10 10.4 76.7 1014.8 9.0 SW 12.4 SSW 0.0 552.6
08:15 10.6 75.4 1014.8 9.0 SW 13.1 SSW 0.0 554.6
08:20 11.0 74.3 1014.9 9.1 SW 12.7 SW 0.0 581.1
08:25 11.1 73.7 1014.9 10.4 SW 15.5 SW 0.0 595.6
08:30 11.0 74.3 1014.8 11.6 SW 15.2 SW 0.0 616.2
08:35 11.0 74.0 1014.8 11.5 SW 14.1 WSW 0.0 627.7
08:40 11.2 75.2 1014.8 9.7 SW 13.4 SW 0.0 626.6
08:45 11.7 73.2 1014.8 9.3 SSW 13.8 SSW 0.0 651.3
08:50 11.8 72.1 1014.7 11.5 SSW 17.7 SSW 0.0 670.0
08:55 11.8 72.2 1014.7 11.9 SW 17.0 SW 0.0 687.5
09:00 12.0 71.8 1014.8 10.2 SW 14.5 WSW 0.0 701.5
09:05 12.3 70.6 1014.8 9.1 SW 13.8 SW 0.0 717.4
09:10 12.4 70.5 1014.9 7.7 SW 14.8 SW 0.0 738.2
09:15 12.7 69.5 1014.9 4.5 SW 10.3 SW 0.0 759.6
09:20 12.8 72.9 1014.9 2.3 NW 6.7 ESE 0.0 790.1
09:25 13.0 70.8 1014.9 2.5 WNW 7.4 NNE 0.0 704.3
09:30 13.1 69.4 1014.9 3.4 NW 6.7 NNE 0.0 577.3
09:35 13.0 70.4 1015.0 7.8 NNE 13.1 N 0.0 606.9
09:40 12.8 71.0 1015.0 9.8 NNE 16.6 NNE 0.0 586.8
09:45 12.6 71.1 1015.0 11.8 NNE 19.8 NNE 0.0 443.5
09:50 12.4 71.8 1014.9 11.2 NNE 16.6 NNE 0.0 376.0
09:55 12.4 72.0 1014.9 8.0 NNE 15.5 NNE 0.0 357.9
10:00 12.3 72.4 1014.9 9.9 NNE 15.2 NNE 0.0 350.6
10:05 12.4 72.5 1014.9 9.4 NNE 14.5 N 0.0 369.9
10:10 12.4 72.3 1014.9 9.5 NNE 16.6 NNE 0.0 307.4
10:15 12.7 72.3 1014.9 9.0 NNE 15.9 NNE 0.0 323.5
10:20 12.5 72.1 1014.9 10.5 NNE 18.0 NNE 0.0 313.9
10:25 12.7 71.9 1014.9 8.8 NE 15.9 NNE 0.0 352.6
10:30 12.5 72.2 1014.9 9.4 ENE 15.2 E 0.0 343.6
10:35 12.9 71.2 1014.9 8.9 ENE 13.8 E 0.0 395.9
10:40 13.1 70.2 1014.9 7.2 NE 15.2 ENE 0.0 368.1
10:45 13.1 70.3 1014.9 7.6 NE 13.4 NNE 0.0 345.2
10:50 12.8 70.8 1014.8 9.6 NNE 16.2 N 0.0 373.8
10:55 12.9 71.2 1014.8 8.9 NE 14.5 ENE 0.0 520.3
11:00 13.3 68.8 1014.8 8.4 NNE 13.4 NNE 0.0 528.2
11:05 12.9 70.1 1014.7 11.1 NNE 18.4 NNE 0.0 460.5
11:10 12.9 70.3 1014.7 7.6 NNE 13.4 ENE 0.0 443.2
11:15 13.0 69.9 1014.6 9.8 NNE 19.1 NNE 0.0 433.0
11:20 13.2 69.8 1014.5 9.6 NNE 20.5 NE 0.0 418.4
11:25 13.1 70.5 1014.5 10.7 NE 22.6 NE 0.0 506.7
11:30 13.2 70.5 1014.4 7.6 NNE 16.6 NNE 0.0 506.2
11:35 13.3 70.8 1014.3 11.6 NE 24.7 N 0.0 561.0
11:40 13.2 71.1 1014.3 9.1 NNE 19.8 NNE 0.0 442.2
11:45 13.3 70.7 1014.3 10.0 NNE 24.4 NNE 0.0 567.4
11:50 12.9 71.2 1014.2 11.7 NNE 24.4 ENE 0.0 489.4
11:55 13.3 71.8 1014.2 5.7 NNE 14.5 N 0.0 781.9
12:00 14.4 69.2 1014.1 7.0 ENE 16.6 NNE 0.0 754.3
12:05 14.5 68.4 1014.1 4.7 N 11.7 NNW 0.0 1047.0
12:10 15.0 66.9 1014.1 8.0 NE 18.0 NNE 0.0 1000.0
12:15 14.6 67.2 1014.0 10.5 NE 24.4 NNE 0.0 681.5
12:20 14.3 67.6 1014.0 8.2 NE 18.7 NNE 0.0 762.0
12:25 14.2 69.3 1014.0 6.9 E 18.4 NNE 0.0 682.5
12:30 14.1 70.2 1013.9 4.1 WSW 13.1 NW 0.0 995.0
12:35 14.5 69.8 1013.9 7.9 SSW 16.6 SSE 0.0 601.4
12:40 14.5 69.4 1013.9 6.5 S 14.5 SSE 0.0 585.7
12:45 15.2 69.2 1013.9 7.3 SSW 13.8 SSW 0.0 1051.0
12:50 15.2 67.6 1013.8 11.1 S 24.7 SSE 0.0 881.0
12:55 14.7 69.3 1013.9 7.8 S 18.4 S 0.0 666.1
13:00 14.9 70.2 1013.9 6.0 SSE 15.9 SSE 0.0 948.0
13:05 15.0 71.1 1013.7 11.7 SSE 25.1 SE 0.0 902.0
13:10 15.1 71.7 1013.7 7.7 SSE 24.4 ESE 0.0 838.0
13:15 15.5 69.4 1013.7 10.9 SSE 21.2 SE 0.0 983.0
13:20 14.3 73.5 1013.6 15.2 SE 28.2 SSE 0.0 937.0
13:25 15.1 72.4 1013.6 9.3 SE 21.5 SSE 0.0 993.0
13:30 15.1 72.0 1013.6 8.3 S 20.8 SSE 0.0 917.0
13:35 15.5 70.0 1013.6 6.4 ESE 15.5 SSE 0.0 674.2
13:40 14.9 72.6 1013.5 8.4 S 18.7 S 0.0 889.0
13:45 14.9 73.3 1013.4 10.7 SSE 26.1 SSE 0.0 982.0
13:50 15.3 73.9 1013.3 5.9 SSW 16.2 ESE 0.0 910.0
13:55 15.7 71.8 1013.3 11.1 ESE 21.2 ESE 0.0 835.0
14:00 15.1 71.5 1013.3 10.4 SE 21.9 ESE 0.0 526.8
14:05 14.3 74.3 1013.3 11.6 SE 22.6 S 0.0 494.2
14:10 13.5 77.8 1013.3 11.6 ESE 20.8 SE 0.0 373.4
14:15 12.9 79.7 1013.3 14.9 ESE 23.3 SE 0.0 302.0
14:20 12.5 81.9 1013.3 12.6 SE 20.8 SSE 0.0 236.1
14:25 12.0 84.6 1013.3 9.6 ESE 18.0 SE 0.0 284.1
14:30 12.0 84.3 1013.2 12.3 ESE 20.5 SE 0.0 258.3
14:35 12.1 85.4 1013.2 5.4 ESE 10.3 SE 0.0 142.9
14:40 12.1 84.2 1013.1 4.7 SE 11.0 ESE 0.0 103.6
14:45 11.7 85.3 1013.1 9.6 SE 15.2 ESE 0.0 98.5
14:50 11.3 87.6 1013.0 9.1 ESE 15.2 ESE 0.0 107.9
14:55 11.2 88.2 1013.0 10.7 ESE 17.3 E 0.0 108.1
15:00 11.2 88.8 1013.0 9.1 E 15.2 ENE 0.0 115.7
15:05 10.9 88.3 1013.0 10.9 ESE 21.5 ESE 0.0 79.3
15:10 10.4 90.6 1013.0 8.7 SE 18.7 ESE 0.0 65.3
15:15 10.1 91.4 1013.0 15.5 ESE 24.7 ESE 0.0 44.6
15:20 9.8 92.8 1013.0 12.4 ESE 19.8 ESE 0.0 39.5
15:25 9.8 93.4 1013.0 12.6 ESE 22.6 ESE 0.0 72.9
15:30 9.7 94.1 1012.9 12.2 SE 21.2 ESE 0.0 59.7
15:35 9.7 94.4 1012.9 12.3 SE 20.1 SE 0.0 55.7
15:40 9.6 94.8 1012.8 13.1 SE 21.9 SE 0.0 64.5
15:45 9.6 95.3 1012.8 10.9 ESE 18.0 SSE 0.0 64.6
15:50 9.6 95.4 1012.8 8.0 SSE 18.4 SE 0.0 47.5
15:55 9.6 95.6 1012.8 10.2 SE 18.7 SSE 0.0 32.7
16:00 9.5 95.6 1012.8 9.1 SE 17.7 SE 0.0 24.0
16:05 9.4 95.9 1012.8 8.0 ESE 16.6 SE 0.0 33.1
16:10 9.5 96.2 1012.8 9.5 ESE 16.6 E 0.0 28.2
16:15 9.6 96.2 1012.8 9.2 ESE 14.8 ESE 0.0 21.1
16:20 9.4 96.3 1012.7 10.6 ESE 16.2 SE 0.0 29.8
16:25 9.4 96.3 1012.8 10.1 ESE 18.0 ESE 0.0 24.1
16:30 9.5 96.6 1012.8 6.9 SSE 13.1 SE 0.0 15.6
16:35 9.5 96.6 1012.8 6.7 SE 10.6 SE 0.0 19.8
16:40 9.5 96.6 1012.8 8.4 SE 13.1 SE 0.0 18.6
16:45 9.5 96.8 1012.9 6.3 ESE 13.1 ENE 0.0 10.8
Màxima 15.8 96.8 1017.5 19.6 SW 28.2 SSE 0.0 1051.0
Mínima 7.0 66.9 1012.7
Total 0.0